0AR5 weather

Rgnl Medical Center Heliport
Jonesboro, Arkansas, United States

Public forecast

Using degrees Fahrenheit for public forecast. Weather courtesy of forecast.io.

Closest aviation weather report (METAR) to Rgnl Medical Center Heliport

Report is more than 6 hours old.

Closest report is Jonesboro Municipal Airport, 2.7 nm (5.0 km) E. Retrieved 2020/03/28 23:53 UTC (2 months ago):

KJBR 282353Z AUTO RMK AO2 LTG DSNT E-S RAEMM SLPNO P0005 60018 10239 20217 PWINO FZRANO

Closest aviation forecast (TAF) to Rgnl Medical Center Heliport

Closest forecast is Jonesboro Municipal Airport, 2.7 nm (5.0 km) E. Retrieved 2020/05/26 12:27 UTC (5 hours ago):

TAF KJBR 261125Z 2612/2712 16011KT P6SM FEW060 BKN120 FM261400 16013G20KT P6SM FEW040 BKN100 FM261900 16011G17KT P6SM VCTS SCT040CB BKN060 FM270100 14008KT P6SM VCSH SCT025 BKN050 FM270600 17006KT P6SM VCSH BKN015 AMD NOT SKED